Terminal Aerodrome Forecast
Issued by NWS

Home | Current Version | Previous Version | Text Only | Print | Product List | Glossary On
Versions: 1 2 3 4 5 6 7 8 9 10 11 12 13 14
000
FTUS44 KEPZ 161100 RRA
TAFTCS
TAF
KTCS 161159Z 1612/1712 03007KT P6SM -SHRA SCT015 OVC040
      TEMPO 1612/1615 3SM SHRA BR BKN012
     FM161800 11009KT P6SM VCSH SCT010 BKN050
      TEMPO 1618/1622 3SM +TSRA BKN015CB
     FM170000 14010KT 5SM TSRA SCT015 BKN040CB=

USA.gov is the U.S. government's official web portal to all federal, state and local government web resources and services.